Time;durP1;ratioP1;P1;durP2;ratioP2;P2;SDS_P1;SDS_P2;PMS_P1;PMS_P2;Temp;Humidity;BMP_temperature;BMP_pressure;BME280_temperature;BME280_humidity;BME280_pressure;Samples;Min_cycle;Max_cycle;Signal;HPM_P1;HPM_P2
2023/11/29 00:01:04;;;;;;;27.42;12.55;;;10.20;85.30;;;;;;5054316;28;20036;-76
2023/11/29 00:03:30;;;;;;;24.10;12.00;;;10.10;85.30;;;;;;5054239;28;20037;-79
2023/11/29 00:05:55;;;;;;;27.88;12.68;;;10.10;85.80;;;;;;5054010;28;20053;-77
2023/11/29 00:08:21;;;;;;;24.40;12.40;;;10.00;85.90;;;;;;5053632;28;20048;-78
2023/11/29 00:10:47;;;;;;;27.38;11.48;;;9.90;87.10;;;;;;5054152;28;20029;-76
2023/11/29 00:13:13;;;;;;;29.95;12.00;;;9.90;87.50;;;;;;5043873;28;20045;-77
2023/11/29 00:15:39;;;;;;;24.20;11.05;;;9.80;87.30;;;;;;5032742;28;20468;-77
2023/11/29 00:18:05;;;;;;;24.30;11.52;;;9.80;87.10;;;;;;5033734;28;20387;-76
2023/11/29 00:20:30;;;;;;;23.63;10.70;;;9.90;87.00;;;;;;5033859;28;20029;-76
2023/11/29 00:22:56;;;;;;;21.45;11.15;;;10.00;86.20;;;;;;5033563;28;20033;-76
2023/11/29 00:25:22;;;;;;;21.42;10.82;;;10.00;86.10;;;;;;5033802;28;20096;-76
2023/11/29 00:27:48;;;;;;;23.95;10.73;;;10.00;85.90;;;;;;5033837;28;20045;-77
2023/11/29 00:30:14;;;;;;;30.73;11.60;;;10.00;86.10;;;;;;5033590;28;20033;-77
2023/11/29 00:32:40;;;;;;;23.05;11.07;;;10.00;86.20;;;;;;5033888;28;20454;-77
2023/11/29 00:35:05;;;;;;;26.17;11.60;;;9.90;87.20;;;;;;5034085;28;20514;-77
2023/11/29 00:37:31;;;;;;;27.55;11.18;;;9.90;87.50;;;;;;5033502;28;20052;-76
2023/11/29 00:39:57;;;;;;;24.95;12.07;;;9.80;87.70;;;;;;5033675;28;20033;-77
2023/11/29 00:42:23;;;;;;;23.20;10.88;;;9.80;87.60;;;;;;5032925;28;20036;-77
2023/11/29 00:44:49;;;;;;;25.20;11.23;;;9.80;87.70;;;;;;5033265;28;20431;-76
2023/11/29 00:47:15;;;;;;;23.70;10.60;;;9.80;87.60;;;;;;5033206;28;20965;-76
2023/11/29 00:49:41;;;;;;;26.50;11.60;;;9.80;87.70;;;;;;5033526;28;20088;-76
2023/11/29 00:52:07;;;;;;;28.40;11.73;;;9.70;87.70;;;;;;5032937;28;20049;-79
2023/11/29 00:54:33;;;;;;;25.25;12.13;;;9.70;88.10;;;;;;5032780;28;20459;-76
2023/11/29 00:56:58;;;;;;;25.92;12.13;;;9.70;88.20;;;;;;5032908;28;20033;-77
2023/11/29 00:59:25;;;;;;;20.05;11.25;;;9.70;87.90;;;;;;5033114;28;20055;-77
2023/11/29 01:01:51;;;;;;;19.50;11.20;;;9.70;88.10;;;;;;5032968;28;20443;-77
2023/11/29 01:04:17;;;;;;;27.33;11.30;;;9.60;88.00;;;;;;5035704;28;20060;-77
2023/11/29 01:06:42;;;;;;;27.08;11.25;;;9.70;88.20;;;;;;5042616;28;20487;-77
2023/11/29 01:09:10;;;;;;;23.52;11.55;;;9.70;88.20;;;;;;5032184;28;20480;-77
2023/11/29 01:11:35;;;;;;;21.05;10.88;;;9.70;88.40;;;;;;5032654;28;20059;-76
2023/11/29 01:14:01;;;;;;;22.42;11.18;;;9.70;88.40;;;;;;5039660;28;20049;-77
2023/11/29 01:16:27;;;;;;;20.58;11.23;;;9.60;88.40;;;;;;5035897;28;20560;-76
2023/11/29 01:18:52;;;;;;;25.98;11.73;;;9.60;88.70;;;;;;5032518;28;20025;-77
2023/11/29 01:21:18;;;;;;;25.33;12.45;;;9.60;88.50;;;;;;5032590;28;20156;-76
2023/11/29 01:23:44;;;;;;;27.83;12.20;;;9.60;88.60;;;;;;5032496;28;20030;-76
2023/11/29 01:26:10;;;;;;;29.58;13.20;;;9.50;88.50;;;;;;5015047;28;20080;-77
2023/11/29 01:28:36;;;;;;;32.47;12.38;;;9.50;88.70;;;;;;5030202;28;20491;-78
2023/11/29 01:31:08;;;;;;;27.95;12.65;;;9.50;88.80;;;;;;5032691;28;20508;-78
2023/11/29 01:33:35;;;;;;;22.02;11.57;;;9.60;89.00;;;;;;5032710;28;20038;-77
2023/11/29 01:36:10;;;;;;;25.45;11.55;;;9.50;88.80;;;;;;5032385;28;20101;-77
2023/11/29 01:38:36;;;;;;;22.25;12.02;;;9.50;89.30;;;;;;5032523;28;20025;-76
2023/11/29 01:41:03;;;;;;;22.35;10.38;;;9.50;89.20;;;;;;5032542;28;20037;-76
2023/11/29 01:43:29;;;;;;;21.92;9.80;;;9.50;89.10;;;;;;5032247;28;20041;-76
2023/11/29 01:45:55;;;;;;;19.48;9.85;;;9.50;88.80;;;;;;5032233;28;20034;-77
2023/11/29 01:48:22;;;;;;;27.67;10.77;;;9.50;89.20;;;;;;5036898;28;20102;-77
2023/11/29 01:50:52;;;;;;;17.52;8.38;;;9.40;89.00;;;;;;5051698;28;20040;-75
2023/11/29 01:53:21;;;;;;;23.35;10.20;;;9.50;89.00;;;;;;5051769;28;20082;-76
2023/11/29 01:55:52;;;;;;;21.83;9.30;;;9.40;88.90;;;;;;5051932;28;20033;-77
2023/11/29 01:58:19;;;;;;;20.27;9.50;;;9.40;88.90;;;;;;5052011;28;20507;-76
2023/11/29 02:00:45;;;;;;;18.27;9.02;;;9.40;88.60;;;;;;5052025;28;20033;-78
2023/11/29 02:03:12;;;;;;;24.85;9.07;;;9.40;89.10;;;;;;5051752;28;20509;-76
2023/11/29 02:05:38;;;;;;;21.95;9.43;;;9.40;89.20;;;;;;5051795;28;20441;-78
2023/11/29 02:08:04;;;;;;;21.63;9.05;;;9.30;88.90;;;;;;5052254;28;20170;-77
2023/11/29 02:10:30;;;;;;;20.45;9.10;;;9.30;89.10;;;;;;5051778;28;20162;-77
2023/11/29 02:12:57;;;;;;;23.13;8.60;;;9.30;88.90;;;;;;5051446;28;20522;-77
2023/11/29 02:15:23;;;;;;;18.45;8.98;;;9.20;89.10;;;;;;5051468;28;20036;-77
2023/11/29 02:17:49;;;;;;;19.67;8.60;;;9.20;89.10;;;;;;5033832;28;20120;-76
2023/11/29 02:20:17;;;;;;;21.17;8.65;;;9.10;88.80;;;;;;5051929;28;20037;-76
2023/11/29 02:22:47;;;;;;;18.45;8.15;;;9.10;88.70;;;;;;5051640;28;20068;-76
2023/11/29 02:25:13;;;;;;;17.52;7.90;;;9.10;88.90;;;;;;5051868;28;20037;-76
2023/11/29 02:27:39;;;;;;;22.17;8.70;;;9.00;89.00;;;;;;5051580;28;20102;-76
2023/11/29 02:30:05;;;;;;;16.65;7.30;;;9.00;88.90;;;;;;5050774;28;20035;-76
2023/11/29 02:32:31;;;;;;;14.95;7.32;;;8.90;89.40;;;;;;5051910;28;20090;-77
2023/11/29 02:34:56;;;;;;;22.08;9.20;;;9.00;89.00;;;;;;5051875;28;20029;-76
2023/11/29 02:37:22;;;;;;;15.80;7.78;;;9.00;88.70;;;;;;5051631;28;20064;-75
2023/11/29 02:39:48;;;;;;;18.40;7.90;;;9.00;88.80;;;;;;5051824;28;20163;-76
2023/11/29 02:42:13;;;;;;;21.10;7.97;;;9.00;88.90;;;;;;5054339;28;20124;-75
2023/11/29 02:44:39;;;;;;;18.33;8.38;;;9.00;88.80;;;;;;5055293;28;20083;-77
2023/11/29 02:47:05;;;;;;;26.23;8.63;;;9.00;88.80;;;;;;5055660;28;20072;-77
2023/11/29 02:49:31;;;;;;;24.70;8.95;;;8.90;89.10;;;;;;5055700;28;20033;-77
2023/11/29 02:51:56;;;;;;;24.63;8.45;;;8.90;89.20;;;;;;5055690;28;20086;-76
2023/11/29 02:54:22;;;;;;;19.00;7.53;;;8.90;89.00;;;;;;5055674;28;20057;-77
2023/11/29 02:56:48;;;;;;;22.40;8.05;;;8.90;89.30;;;;;;5051060;28;20030;-76
2023/11/29 02:59:14;;;;;;;21.42;8.60;;;8.90;89.00;;;;;;5035813;28;20076;-76
2023/11/29 03:01:39;;;;;;;24.35;7.60;;;8.80;89.10;;;;;;5035589;28;20038;-77
2023/11/29 03:04:05;;;;;;;16.08;7.38;;;8.80;89.30;;;;;;5035634;28;20079;-79
2023/11/29 03:06:31;;;;;;;18.35;7.97;;;8.80;89.40;;;;;;5035659;28;20033;-76
2023/11/29 03:08:56;;;;;;;16.80;7.35;;;8.80;89.00;;;;;;5035561;28;20406;-76
2023/11/29 03:11:22;;;;;;;22.65;8.55;;;8.80;89.40;;;;;;5035647;28;20022;-76
2023/11/29 03:13:48;;;;;;;22.30;7.72;;;8.70;89.10;;;;;;5034690;28;20561;-76
2023/11/29 03:16:14;;;;;;;18.38;7.55;;;8.70;89.20;;;;;;5034922;28;20400;-76
2023/11/29 03:18:39;;;;;;;16.05;7.43;;;8.70;89.40;;;;;;5035374;28;20038;-77
2023/11/29 03:21:05;;;;;;;13.52;7.25;;;8.70;89.10;;;;;;5034215;28;20044;-76
2023/11/29 03:23:31;;;;;;;17.70;8.25;;;8.70;89.60;;;;;;5035292;28;20041;-78
2023/11/29 03:26:01;;;;;;;19.52;7.80;;;8.70;89.10;;;;;;5035289;28;20057;-77
2023/11/29 03:28:28;;;;;;;17.98;8.18;;;8.60;89.00;;;;;;5035423;28;20124;-77
2023/11/29 03:30:56;;;;;;;21.58;8.40;;;8.60;89.20;;;;;;5035224;28;20038;-77
2023/11/29 03:33:21;;;;;;;20.55;9.32;;;8.60;89.50;;;;;;5035038;28;20045;-77
2023/11/29 03:35:47;;;;;;;20.15;8.23;;;8.60;89.70;;;;;;5034965;28;20037;-77
2023/11/29 03:38:13;;;;;;;17.20;7.47;;;8.60;89.50;;;;;;5034815;28;20037;-76
2023/11/29 03:40:38;;;;;;;19.33;9.30;;;8.60;89.60;;;;;;5034749;28;20037;-76
2023/11/29 03:43:04;;;;;;;26.67;9.23;;;8.50;89.50;;;;;;5034554;28;20037;-77
2023/11/29 03:45:30;;;;;;;21.45;8.13;;;8.50;89.60;;;;;;5034841;28;20033;-76
2023/11/29 03:47:55;;;;;;;21.13;8.20;;;8.50;89.70;;;;;;5034502;28;20120;-76
2023/11/29 03:50:21;;;;;;;23.10;7.47;;;8.60;89.70;;;;;;5034775;28;20041;-77
2023/11/29 03:52:47;;;;;;;22.67;8.20;;;8.50;89.70;;;;;;5033310;28;20025;-77
2023/11/29 03:55:12;;;;;;;21.00;8.55;;;8.50;89.90;;;;;;5034364;28;20116;-76
2023/11/29 03:57:38;;;;;;;19.10;7.47;;;8.50;89.90;;;;;;5034349;28;20462;-76
2023/11/29 04:00:04;;;;;;;19.33;8.10;;;8.50;89.70;;;;;;5033013;28;20041;-76
2023/11/29 04:02:30;;;;;;;21.05;8.38;;;8.50;90.30;;;;;;5034009;28;20110;-76
2023/11/29 04:04:56;;;;;;;17.98;8.10;;;8.50;90.00;;;;;;5034159;28;20376;-77
2023/11/29 04:07:22;;;;;;;17.50;7.30;;;8.50;90.00;;;;;;5033958;28;20034;-75
2023/11/29 04:09:47;;;;;;;22.00;8.50;;;8.40;90.00;;;;;;5034147;28;20037;-76
2023/11/29 04:12:13;;;;;;;16.73;6.78;;;8.40;90.10;;;;;;5033961;28;20573;-76
2023/11/29 04:14:40;;;;;;;15.70;7.97;;;8.40;90.00;;;;;;5033894;28;20041;-77
2023/11/29 04:17:05;;;;;;;21.00;7.82;;;8.50;90.10;;;;;;5032678;28;20469;-77
2023/11/29 04:19:31;;;;;;;17.33;7.68;;;8.40;90.00;;;;;;5033889;28;20116;-75
2023/11/29 04:21:57;;;;;;;13.15;7.55;;;8.50;90.10;;;;;;5033964;28;20105;-75
2023/11/29 04:24:22;;;;;;;17.33;6.97;;;8.40;90.10;;;;;;5034925;28;20050;-76
2023/11/29 04:26:48;;;;;;;19.73;7.50;;;8.40;90.10;;;;;;5033999;28;20021;-76
2023/11/29 04:29:14;;;;;;;14.35;7.00;;;8.50;90.10;;;;;;5033467;28;20431;-75
2023/11/29 04:31:40;;;;;;;16.92;7.30;;;8.40;90.40;;;;;;5034032;28;20387;-76
2023/11/29 04:34:10;;;;;;;16.25;7.05;;;8.40;90.00;;;;;;5034124;28;20517;-77
2023/11/29 04:36:35;;;;;;;14.02;7.07;;;8.40;90.00;;;;;;5033924;28;20410;-77
2023/11/29 04:39:01;;;;;;;17.73;7.50;;;8.40;90.10;;;;;;5033504;28;20041;-75
2023/11/29 04:41:27;;;;;;;16.10;7.47;;;8.40;90.00;;;;;;5033387;28;20368;-75
2023/11/29 04:43:53;;;;;;;22.02;7.82;;;8.30;90.20;;;;;;5033532;28;20048;-75
2023/11/29 04:46:19;;;;;;;15.27;7.03;;;8.30;90.10;;;;;;5033611;28;20091;-76
2023/11/29 04:48:45;;;;;;;14.90;7.80;;;8.30;90.10;;;;;;5033406;28;20468;-77
2023/11/29 04:51:12;;;;;;;17.15;7.65;;;8.30;90.10;;;;;;5033421;28;20391;-75
2023/11/29 04:53:38;;;;;;;14.40;7.18;;;8.30;90.10;;;;;;5033208;28;20030;-77
2023/11/29 04:56:05;;;;;;;18.65;6.90;;;8.20;90.00;;;;;;5033177;28;20491;-76
2023/11/29 04:58:30;;;;;;;14.23;7.15;;;8.10;90.20;;;;;;5032943;28;20044;-74
2023/11/29 05:00:56;;;;;;;18.27;6.47;;;8.10;90.10;;;;;;5033173;28;20025;-77
2023/11/29 05:03:22;;;;;;;18.25;7.63;;;8.10;90.20;;;;;;5032419;28;20048;-77
2023/11/29 05:05:48;;;;;;;15.82;6.93;;;8.10;90.10;;;;;;5033112;28;20034;-77
2023/11/29 05:08:14;;;;;;;18.55;6.75;;;8.10;90.20;;;;;;5032514;28;20041;-77
2023/11/29 05:10:41;;;;;;;21.35;7.32;;;8.10;90.20;;;;;;5032843;28;20183;-76
2023/11/29 05:13:07;;;;;;;17.17;7.10;;;8.10;90.20;;;;;;5032840;28;20045;-76
2023/11/29 05:15:36;;;;;;;14.10;6.50;;;8.00;90.20;;;;;;5033071;28;20163;-75
2023/11/29 05:18:05;;;;;;;14.80;6.57;;;8.00;90.20;;;;;;5032992;28;20041;-76
2023/11/29 05:20:31;;;;;;;16.38;7.05;;;8.10;90.20;;;;;;5033002;28;20033;-76
2023/11/29 05:22:57;;;;;;;17.45;7.15;;;8.10;90.10;;;;;;5032297;28;20033;-76
2023/11/29 05:25:23;;;;;;;15.00;7.18;;;8.00;90.10;;;;;;5032568;28;20040;-77
2023/11/29 05:27:49;;;;;;;16.83;6.90;;;8.00;90.10;;;;;;5032543;28;20383;-76
2023/11/29 05:30:15;;;;;;;17.55;7.95;;;8.10;90.10;;;;;;5032678;28;20432;-77
2023/11/29 05:32:41;;;;;;;18.75;7.15;;;8.10;90.20;;;;;;5032619;28;20043;-77
2023/11/29 05:35:07;;;;;;;13.60;6.47;;;8.10;90.20;;;;;;5032611;28;20030;-77
2023/11/29 05:37:33;;;;;;;18.27;5.85;;;8.10;90.10;;;;;;5032361;28;20056;-77
2023/11/29 05:39:58;;;;;;;17.95;7.00;;;8.10;90.10;;;;;;5032331;28;20038;-76
2023/11/29 05:42:24;;;;;;;16.70;7.35;;;8.10;90.20;;;;;;5032397;28;20044;-76
2023/11/29 05:44:54;;;;;;;16.15;5.85;;;8.10;90.10;;;;;;5032351;28;20033;-77
2023/11/29 05:47:20;;;;;;;20.42;6.45;;;8.10;90.10;;;;;;5014505;28;20038;-77
2023/11/29 05:49:46;;;;;;;25.38;7.13;;;8.10;90.00;;;;;;5032474;28;20040;-75
2023/11/29 05:52:12;;;;;;;12.75;5.20;;;8.10;90.10;;;;;;5032525;28;20041;-77
2023/11/29 05:54:37;;;;;;;15.35;5.70;;;8.00;89.90;;;;;;5031932;28;20109;-78
2023/11/29 05:57:03;;;;;;;15.23;5.47;;;8.00;90.10;;;;;;5032037;28;20450;-77
2023/11/29 05:59:29;;;;;;;13.55;5.90;;;7.90;90.00;;;;;;5032164;28;20041;-77
2023/11/29 06:01:55;;;;;;;17.92;5.43;;;8.00;90.00;;;;;;5032079;28;20401;-77
2023/11/29 06:04:21;;;;;;;15.63;5.85;;;8.00;90.00;;;;;;5032444;28;20037;-77
2023/11/29 06:06:47;;;;;;;16.63;6.60;;;8.00;89.80;;;;;;5030736;28;20380;-76
2023/11/29 06:09:14;;;;;;;16.85;6.18;;;8.10;90.00;;;;;;5031907;28;20044;-77
2023/11/29 06:11:40;;;;;;;15.02;6.10;;;8.00;89.90;;;;;;5032016;28;20046;-76
2023/11/29 06:14:06;;;;;;;15.02;6.65;;;8.00;89.70;;;;;;5031821;28;20053;-77
2023/11/29 06:16:33;;;;;;;15.38;6.97;;;8.00;89.90;;;;;;5032252;28;20034;-77
2023/11/29 06:18:59;;;;;;;14.80;6.45;;;8.00;89.90;;;;;;5032011;28;20079;-77
2023/11/29 06:21:25;;;;;;;13.73;6.97;;;8.00;90.00;;;;;;5032065;28;20038;-76
2023/11/29 06:23:50;;;;;;;16.05;6.78;;;8.00;89.90;;;;;;5030619;28;20043;-75
2023/11/29 06:26:18;;;;;;;17.20;6.75;;;8.00;89.80;;;;;;5032124;28;20499;-77
2023/11/29 06:28:44;;;;;;;16.80;7.88;;;8.00;89.70;;;;;;5031905;28;20474;-77
2023/11/29 06:31:10;;;;;;;19.80;7.30;;;8.10;89.80;;;;;;5031869;28;20057;-77
2023/11/29 06:33:35;;;;;;;17.48;7.20;;;8.10;90.00;;;;;;5031740;28;20504;-76
2023/11/29 06:36:02;;;;;;;15.05;6.13;;;8.10;89.90;;;;;;5032052;28;20029;-76
2023/11/29 06:38:28;;;;;;;14.75;6.50;;;8.10;90.00;;;;;;5031852;28;20112;-77
2023/11/29 06:40:54;;;;;;;13.52;5.88;;;8.10;89.80;;;;;;5031750;28;20064;-78
2023/11/29 06:43:20;;;;;;;15.98;6.13;;;8.30;90.00;;;;;;5031023;28;20133;-76
2023/11/29 06:45:49;;;;;;;13.48;5.32;;;8.50;89.50;;;;;;5031328;28;20034;-78
2023/11/29 06:48:15;;;;;;;11.95;5.57;;;8.80;90.30;;;;;;5031267;28;20041;-76
2023/11/29 06:50:42;;;;;;;14.32;5.97;;;9.10;88.40;;;;;;5031066;28;20037;-78
2023/11/29 06:53:08;;;;;;;18.75;7.07;;;9.50;88.10;;;;;;5034294;28;20025;-75
2023/11/29 06:55:34;;;;;;;15.30;5.95;;;9.80;87.30;;;;;;5049638;28;20044;-76
2023/11/29 06:58:00;;;;;;;15.15;6.40;;;10.20;85.80;;;;;;5051168;28;20065;-73
2023/11/29 07:00:26;;;;;;;16.10;5.45;;;10.50;84.90;;;;;;5039626;28;20041;-76
2023/11/29 07:02:51;;;;;;;20.00;6.75;;;10.80;83.90;;;;;;5011564;28;20034;-77
2023/11/29 07:05:17;;;;;;;11.38;5.57;;;11.20;83.20;;;;;;5011627;28;20036;-76
2023/11/29 07:07:43;;;;;;;18.27;6.72;;;11.50;82.20;;;;;;5022366;28;20231;-76
2023/11/29 07:10:09;;;;;;;15.27;5.20;;;11.70;81.30;;;;;;5041697;28;20430;-79
2023/11/29 07:12:35;;;;;;;13.63;4.90;;;11.90;79.90;;;;;;5041679;28;20058;-77
2023/11/29 07:15:01;;;;;;;13.93;5.25;;;12.10;79.30;;;;;;5031668;28;20034;-78
2023/11/29 07:17:27;;;;;;;16.33;5.35;;;12.30;78.50;;;;;;5050334;28;20041;-77
2023/11/29 07:19:53;;;;;;;21.00;5.22;;;12.10;77.90;;;;;;5051406;28;20047;-76
2023/11/29 07:22:24;;;;;;;14.82;5.28;;;12.10;77.10;;;;;;5049120;28;20033;-78
2023/11/29 07:24:50;;;;;;;17.20;4.50;;;11.60;78.60;;;;;;5047428;28;20498;-76
2023/11/29 07:27:16;;;;;;;13.48;4.97;;;10.90;79.80;;;;;;5052992;28;20044;-75
2023/11/29 07:29:41;;;;;;;12.63;4.57;;;10.40;80.80;;;;;;5054892;28;20033;-77
2023/11/29 07:32:07;;;;;;;16.70;5.20;;;10.00;81.60;;;;;;5054532;28;20033;-75
2023/11/29 07:34:33;;;;;;;12.40;4.65;;;9.70;83.50;;;;;;5053446;28;20041;-77
2023/11/29 07:36:59;;;;;;;17.45;5.57;;;9.50;83.90;;;;;;5054462;28;20104;-77
2023/11/29 07:39:27;;;;;;;24.35;5.75;;;9.40;84.30;;;;;;5051520;28;20045;-76
2023/11/29 07:41:53;;;;;;;25.20;5.63;;;9.30;84.40;;;;;;5054854;28;20116;-76
2023/11/29 07:44:20;;;;;;;20.98;5.75;;;9.20;84.50;;;;;;5053498;28;20622;-77
2023/11/29 07:46:46;;;;;;;28.00;5.70;;;9.20;84.80;;;;;;5054248;28;20029;-77
2023/11/29 07:49:12;;;;;;;20.90;5.68;;;9.20;84.80;;;;;;5054326;28;20120;-75
2023/11/29 07:51:44;;;;;;;19.52;6.85;;;9.10;84.70;;;;;;5054368;28;20037;-77
2023/11/29 07:54:10;;;;;;;25.00;6.40;;;9.00;84.70;;;;;;5054315;28;20029;-77
2023/11/29 07:56:36;;;;;;;26.25;6.30;;;8.90;84.90;;;;;;5052805;28;20029;-76
2023/11/29 07:59:02;;;;;;;38.53;6.00;;;9.00;85.10;;;;;;5053783;28;20123;-77
2023/11/29 08:01:27;;;;;;;21.95;5.85;;;9.00;85.00;;;;;;5053731;28;20029;-76
2023/11/29 08:03:53;;;;;;;17.75;5.45;;;9.00;85.10;;;;;;5054001;28;20528;-76
2023/11/29 08:06:20;;;;;;;11.82;4.82;;;9.10;85.10;;;;;;5054023;28;20048;-76
2023/11/29 08:08:49;;;;;;;16.85;4.72;;;9.10;84.80;;;;;;5053875;28;20044;-76
2023/11/29 08:11:15;;;;;;;16.80;4.65;;;9.20;84.40;;;;;;5053805;28;20037;-78
2023/11/29 08:13:41;;;;;;;13.48;4.97;;;9.30;84.40;;;;;;5053845;28;20462;-77
2023/11/29 08:16:07;;;;;;;25.13;5.90;;;9.50;84.30;;;;;;5052306;28;20444;-76
2023/11/29 08:18:32;;;;;;;35.55;6.15;;;9.60;83.90;;;;;;5054014;28;20529;-74
2023/11/29 08:20:58;;;;;;;41.38;8.05;;;9.70;83.60;;;;;;5053810;28;20061;-75
2023/11/29 08:23:24;;;;;;;22.95;5.95;;;9.80;83.40;;;;;;5053621;28;20509;-75
2023/11/29 08:25:50;;;;;;;18.73;5.75;;;9.90;83.10;;;;;;5054100;28;20044;-77
2023/11/29 08:28:16;;;;;;;25.75;6.43;;;9.90;83.30;;;;;;5053528;28;20545;-75
2023/11/29 08:30:42;;;;;;;19.98;5.75;;;9.90;83.10;;;;;;5053857;28;20063;-77
2023/11/29 08:33:08;;;;;;;20.42;5.45;;;9.90;83.00;;;;;;5053898;28;20060;-76
2023/11/29 08:35:34;;;;;;;14.23;5.30;;;9.90;82.80;;;;;;5054031;28;20040;-77
2023/11/29 08:38:00;;;;;;;14.68;4.97;;;9.80;82.70;;;;;;5053746;28;20462;-76
2023/11/29 08:40:26;;;;;;;15.35;5.93;;;9.70;82.80;;;;;;5054031;28;20398;-78
2023/11/29 08:42:51;;;;;;;22.48;5.53;;;9.80;83.10;;;;;;5054005;28;20033;-78
2023/11/29 08:45:17;;;;;;;33.75;6.18;;;9.80;83.00;;;;;;5053818;28;20056;-77
2023/11/29 08:47:43;;;;;;;20.08;6.00;;;9.90;83.00;;;;;;5053335;28;20140;-76
2023/11/29 08:50:09;;;;;;;24.10;6.05;;;10.00;81.70;;;;;;5053534;28;20036;-77
2023/11/29 08:52:35;;;;;;;19.25;4.90;;;10.10;81.60;;;;;;5053181;28;20490;-75
2023/11/29 08:55:04;;;;;;;14.20;4.95;;;10.20;81.30;;;;;;5053421;28;20033;-75
2023/11/29 08:57:31;;;;;;;14.52;4.68;;;10.30;80.70;;;;;;5052923;28;20482;-76
2023/11/29 08:59:57;;;;;;;19.67;4.90;;;10.30;80.70;;;;;;5052925;28;20029;-76
2023/11/29 09:02:23;;;;;;;16.10;4.93;;;10.30;80.40;;;;;;5053115;28;20082;-76
2023/11/29 09:04:51;;;;;;;14.73;4.93;;;10.30;80.30;;;;;;5053069;28;20376;-76
2023/11/29 09:07:17;;;;;;;16.17;5.30;;;10.30;80.20;;;;;;5053131;28;20033;-75
2023/11/29 09:09:47;;;;;;;23.02;5.38;;;10.40;80.30;;;;;;5052889;28;20041;-76
2023/11/29 09:12:16;;;;;;;33.38;6.53;;;10.50;80.10;;;;;;5052753;28;20052;-75
2023/11/29 09:14:43;;;;;;;31.95;6.03;;;10.60;80.80;;;;;;5052847;28;20033;-77
2023/11/29 09:17:09;;;;;;;29.38;6.22;;;10.70;79.90;;;;;;5052639;28;20485;-77
2023/11/29 09:19:35;;;;;;;34.05;6.47;;;10.80;79.90;;;;;;5053180;28;20103;-76
2023/11/29 09:22:03;;;;;;;28.17;7.32;;;10.90;79.50;;;;;;5052695;28;20029;-76
2023/11/29 09:24:29;;;;;;;22.08;5.68;;;11.00;79.40;;;;;;5052536;28;20029;-76
2023/11/29 09:26:55;;;;;;;17.92;5.95;;;11.10;79.40;;;;;;5051168;28;20493;-77
2023/11/29 09:29:22;;;;;;;18.83;6.00;;;11.10;78.90;;;;;;5052616;28;20439;-77
2023/11/29 09:31:48;;;;;;;15.75;5.35;;;11.20;78.90;;;;;;5052666;28;20431;-76
2023/11/29 09:34:13;;;;;;;17.80;5.47;;;11.20;78.90;;;;;;5052449;28;20064;-77
2023/11/29 09:36:39;;;;;;;17.88;5.50;;;11.30;79.00;;;;;;5052496;28;20067;-76
2023/11/29 09:39:12;;;;;;;16.77;5.53;;;11.30;78.70;;;;;;5052384;28;20032;-75
2023/11/29 09:41:39;;;;;;;10.68;4.97;;;11.40;78.70;;;;;;5052396;28;20021;-76
2023/11/29 09:44:05;;;;;;;33.42;6.18;;;11.40;78.50;;;;;;5018117;28;20072;-76
2023/11/29 09:46:31;;;;;;;11.60;5.10;;;11.40;78.60;;;;;;5052514;28;20076;-77
2023/11/29 09:48:58;;;;;;;13.02;4.80;;;11.50;78.60;;;;;;5051744;28;20036;-76
2023/11/29 09:51:24;;;;;;;16.63;5.25;;;11.60;78.20;;;;;;5052459;28;20078;-77
2023/11/29 09:53:50;;;;;;;17.52;5.78;;;11.70;77.60;;;;;;5051980;28;20496;-77
2023/11/29 09:56:16;;;;;;;16.00;5.63;;;11.80;77.90;;;;;;5052109;28;20021;-73
2023/11/29 09:58:42;;;;;;;13.15;5.50;;;11.90;77.80;;;;;;5047049;28;20029;-74
2023/11/29 10:01:08;;;;;;;15.68;5.10;;;12.00;77.70;;;;;;5051823;28;20112;-73
2023/11/29 10:03:34;;;;;;;14.98;5.43;;;12.00;77.10;;;;;;5052011;28;20120;-74
2023/11/29 10:06:03;;;;;;;14.68;5.00;;;12.10;77.20;;;;;;5052023;28;20025;-77
2023/11/29 10:08:28;;;;;;;16.10;5.20;;;12.20;77.30;;;;;;5051575;28;20033;-73
2023/11/29 10:10:55;;;;;;;15.20;5.40;;;12.30;77.00;;;;;;5051898;28;20375;-80
2023/11/29 10:13:21;;;;;;;15.80;4.95;;;12.40;76.30;;;;;;5052239;28;20065;-80
2023/11/29 10:15:49;;;;;;;18.10;5.32;;;12.40;76.00;;;;;;5052105;28;20029;-76
2023/11/29 10:18:16;;;;;;;13.45;4.57;;;12.50;76.10;;;;;;5051817;28;20470;-77
2023/11/29 10:20:49;;;;;;;11.48;3.80;;;12.60;75.90;;;;;;5052252;28;20076;-76
2023/11/29 10:23:15;;;;;;;10.88;3.97;;;12.70;76.00;;;;;;5033968;28;20029;-78
2023/11/29 10:25:43;;;;;;;15.18;4.00;;;12.70;75.00;;;;;;5051875;28;20367;-78
2023/11/29 10:28:09;;;;;;;10.93;4.45;;;12.80;75.00;;;;;;5051847;28;20491;-76
2023/11/29 10:30:35;;;;;;;15.43;3.58;;;12.90;74.90;;;;;;5052096;28;20033;-79
2023/11/29 10:33:03;;;;;;;7.80;3.30;;;13.00;74.50;;;;;;5050355;28;20032;-78
2023/11/29 10:35:34;;;;;;;14.05;3.70;;;13.10;73.80;;;;;;5051610;28;20426;-79
2023/11/29 10:38:13;;;;;;;14.68;4.90;;;13.10;73.80;;;;;;5052132;28;20033;-79
2023/11/29 10:40:41;;;;;;;13.63;3.70;;;13.30;73.80;;;;;;5052347;28;20163;-79
2023/11/29 10:43:09;;;;;;;12.95;3.58;;;13.30;73.30;;;;;;5033941;28;20037;-79
2023/11/29 10:45:38;;;;;;;12.95;3.60;;;13.50;73.00;;;;;;5051687;28;20496;-79
2023/11/29 10:48:12;;;;;;;12.18;3.80;;;13.60;73.10;;;;;;5051582;28;20060;-79
2023/11/29 10:50:39;;;;;;;21.02;4.03;;;13.60;72.80;;;;;;5050465;28;20494;-80
2023/11/29 10:53:05;;;;;;;18.98;4.00;;;13.70;72.70;;;;;;5052031;28;20463;-79
2023/11/29 10:55:35;;;;;;;20.15;4.50;;;13.80;72.60;;;;;;5051891;28;20029;-79
2023/11/29 10:58:18;;;;;;;18.23;4.80;;;13.90;72.60;;;;;;5051664;28;20516;-81
2023/11/29 11:00:45;;;;;;;13.85;4.20;;;14.00;72.60;;;;;;5051826;28;20025;-80
2023/11/29 11:03:46;;;;;;;15.45;4.30;;;14.10;72.40;;;;;;5054933;28;20091;-79
2023/11/29 11:06:24;;;;;;;16.60;4.40;;;14.20;72.00;;;;;;5055083;28;20441;-80
2023/11/29 11:08:50;;;;;;;14.13;4.03;;;14.30;72.20;;;;;;5055335;28;20041;-79
2023/11/29 11:11:45;;;;;;;15.60;4.22;;;14.30;72.10;;;;;;5055315;28;20059;-78
2023/11/29 11:14:18;;;;;;;18.55;4.60;;;14.40;71.50;;;;;;5055532;28;20052;-78
2023/11/29 11:17:14;;;;;;;13.57;4.13;;;14.50;71.00;;;;;;5037163;28;20089;-80
2023/11/29 11:19:42;;;;;;;13.05;4.22;;;14.50;70.80;;;;;;5040748;28;20475;-78
2023/11/29 11:22:23;;;;;;;14.57;4.03;;;14.60;70.90;;;;;;5024662;28;20041;-78
2023/11/29 11:24:56;;;;;;;13.45;3.97;;;14.60;70.20;;;;;;5025199;28;20195;-80
2023/11/29 11:27:28;;;;;;;16.27;4.10;;;14.70;70.40;;;;;;5024282;28;20045;-79
2023/11/29 11:29:55;;;;;;;12.88;3.97;;;14.80;70.50;;;;;;5018991;28;20065;-79
2023/11/29 11:32:47;;;;;;;15.63;4.25;;;14.90;70.10;;;;;;5015647;28;20038;-80
2023/11/29 11:35:19;;;;;;;12.23;4.20;;;15.00;70.30;;;;;;5016037;28;20058;-79
2023/11/29 11:37:53;;;;;;;15.38;3.97;;;15.10;69.70;;;;;;5015115;28;20045;-77
2023/11/29 11:40:20;;;;;;;16.40;4.25;;;15.10;68.50;;;;;;5014845;28;20034;-78
2023/11/29 11:42:47;;;;;;;14.48;3.60;;;15.20;68.80;;;;;;5014926;28;20105;-78
2023/11/29 11:45:13;;;;;;;14.10;3.30;;;15.30;68.40;;;;;;5014765;28;20114;-78
2023/11/29 11:47:41;;;;;;;15.00;3.45;;;15.40;68.20;;;;;;5014618;28;20038;-78
2023/11/29 11:50:08;;;;;;;11.05;3.50;;;15.50;68.00;;;;;;5014908;28;20376;-80
2023/11/29 11:52:36;;;;;;;12.88;3.50;;;15.60;67.90;;;;;;5014758;28;20100;-79
2023/11/29 11:55:02;;;;;;;16.80;3.95;;;15.60;67.40;;;;;;5014501;28;20117;-86
2023/11/29 11:57:31;;;;;;;12.70;4.07;;;15.70;67.30;;;;;;5009090;28;20037;-75
2023/11/29 11:59:58;;;;;;;13.95;3.35;;;15.80;66.90;;;;;;5034387;28;20057;-76
2023/11/29 12:02:24;;;;;;;16.77;4.50;;;15.80;66.40;;;;;;5034507;28;20033;-76
2023/11/29 12:04:50;;;;;;;14.00;3.90;;;15.90;66.30;;;;;;5034222;28;20114;-80
2023/11/29 12:07:17;;;;;;;14.43;4.28;;;16.00;66.10;;;;;;5034264;28;20511;-81
2023/11/29 12:09:46;;;;;;;11.57;4.07;;;16.00;65.80;;;;;;5034665;28;20076;-79
2023/11/29 12:12:13;;;;;;;18.13;4.00;;;16.00;65.70;;;;;;5033852;28;20056;-81
2023/11/29 12:14:46;;;;;;;16.25;3.80;;;16.10;65.70;;;;;;5027243;28;20131;-74
2023/11/29 12:17:12;;;;;;;12.10;4.20;;;16.20;65.20;;;;;;5043236;28;20091;-76
2023/11/29 12:19:41;;;;;;;13.70;4.13;;;16.20;65.00;;;;;;5034610;28;20501;-78
2023/11/29 12:22:07;;;;;;;9.77;3.13;;;16.20;64.60;;;;;;5034678;28;20117;-79
2023/11/29 12:24:43;;;;;;;13.68;3.53;;;16.30;64.80;;;;;;5034586;28;20087;-79
2023/11/29 12:27:10;;;;;;;17.50;3.90;;;16.40;64.50;;;;;;5034363;28;20439;-76
2023/11/29 12:29:49;;;;;;;14.75;4.18;;;16.50;64.40;;;;;;5034044;28;20041;-81
2023/11/29 12:32:15;;;;;;;15.38;3.78;;;16.50;64.10;;;;;;5033682;28;20510;-73
2023/11/29 12:34:42;;;;;;;18.10;5.75;;;16.50;63.80;;;;;;5034062;28;20445;-79
2023/11/29 12:37:12;;;;;;;13.70;4.55;;;16.50;63.70;;;;;;5033652;28;20133;-74
2023/11/29 12:39:38;;;;;;;16.13;4.97;;;16.60;63.40;;;;;;5033918;28;20037;-77